Helen, Georgia
Current Conditions -  °F | °C
As of 11:15 PM on Monday 22 Dec 2014 (Local Time) from KTOC Reporting Station
Moderate Rain Moderate Rain  
Wind Chill: 37°   Ceiling: 400
Heat Index: 42°   Visibility: 10mi
Dew Point: 42°   Wind: 7mph
Humidity: 99%   Direction: 70°ENE
Pressure: 29.98"   Gusts: NA
Location:  34.7°N, 83.73°W
Report Text: KTOC 230415Z AUTO 07006KT 10SM RA BKN004 OVC008 06/05 A2998 RMK AO2 T00550053
Loading
Personal Weather Stations






























Interactive Weather Map New forecast layout! Learn more

10-Day Weather Forecast

Advertisements
Track Severe Weather on mobile